Time;durP1;ratioP1;P1;durP2;ratioP2;P2;SDS_P1;SDS_P2;PMS_P1;PMS_P2;Temp;Humidity;BMP_temperature;BMP_pressure;BME280_temperature;BME280_humidity;BME280_pressure;Samples;Min_cycle;Max_cycle;Signal;HPM_P1;HPM_P2
2023/10/18 00:02:16;;;;;;;9.30;5.05;;;9.20;99.90;;;;;;5053916;28;20029;-76
2023/10/18 00:04:43;;;;;;;11.48;4.68;;;9.10;99.90;;;;;;5051005;28;20068;-76
2023/10/18 00:07:11;;;;;;;8.75;4.68;;;9.20;99.90;;;;;;5056750;28;20033;-76
2023/10/18 00:09:48;;;;;;;12.30;5.38;;;9.40;99.90;;;;;;5053677;28;20471;-76
2023/10/18 00:12:18;;;;;;;10.68;5.38;;;9.50;99.90;;;;;;5067654;28;20085;-76
2023/10/18 00:14:51;;;;;;;13.55;5.65;;;9.60;99.90;;;;;;5052440;28;20028;-76
2023/10/18 00:17:16;;;;;;;10.32;5.13;;;9.60;99.90;;;;;;5056466;28;20048;-76
2023/10/18 00:19:43;;;;;;;12.32;5.60;;;9.40;99.90;;;;;;5049253;28;20035;-76
2023/10/18 00:22:09;;;;;;;8.65;4.50;;;9.30;99.90;;;;;;5053209;28;20032;-76
2023/10/18 00:24:39;;;;;;;11.63;5.22;;;9.20;99.90;;;;;;5055823;28;20025;-76
2023/10/18 00:27:05;;;;;;;14.65;5.90;;;9.00;99.90;;;;;;5061000;28;20143;-77
2023/10/18 00:29:31;;;;;;;11.02;5.30;;;9.00;99.90;;;;;;5056382;28;20077;-76
2023/10/18 00:31:59;;;;;;;10.80;5.25;;;9.00;99.90;;;;;;5056775;28;20101;-76
2023/10/18 00:34:25;;;;;;;8.55;5.13;;;8.90;99.90;;;;;;5054013;28;20048;-76
2023/10/18 00:36:50;;;;;;;8.48;4.80;;;8.90;99.90;;;;;;5055741;28;20472;-76
2023/10/18 00:39:27;;;;;;;11.55;5.45;;;8.90;99.90;;;;;;5051982;28;20107;-76
2023/10/18 00:42:23;;;;;;;9.05;4.95;;;8.90;99.90;;;;;;5053411;28;20113;-76
2023/10/18 00:44:42;;;;;;;11.00;5.72;;;8.90;99.90;;;;;;5053672;28;20255;-76
2023/10/18 00:47:13;;;;;;;11.07;5.20;;;8.90;99.90;;;;;;5048974;28;20568;-76
2023/10/18 00:49:39;;;;;;;11.85;5.72;;;8.90;99.90;;;;;;5052073;28;20074;-76
2023/10/18 00:52:06;;;;;;;20.63;6.78;;;9.00;99.90;;;;;;5050228;28;20448;-76
2023/10/18 00:54:32;;;;;;;11.75;5.93;;;8.90;99.90;;;;;;5056610;28;20115;-76
2023/10/18 00:56:58;;;;;;;13.15;6.00;;;8.90;99.90;;;;;;5054145;28;20029;-76
2023/10/18 00:59:26;;;;;;;9.98;5.78;;;8.90;99.90;;;;;;5063832;28;20067;-76
2023/10/18 01:02:03;;;;;;;14.40;6.35;;;9.10;99.90;;;;;;5052491;28;20040;-76
2023/10/18 01:04:33;;;;;;;11.35;6.25;;;9.20;99.90;;;;;;5048034;28;20037;-76
2023/10/18 01:07:05;;;;;;;12.70;5.63;;;9.20;99.90;;;;;;5050039;28;20116;-77
2023/10/18 01:09:31;;;;;;;12.35;6.15;;;9.00;99.90;;;;;;5063236;28;20078;-76
2023/10/18 01:11:56;;;;;;;12.15;6.43;;;9.00;99.90;;;;;;5055690;28;20033;-76
2023/10/18 01:14:25;;;;;;;10.98;5.75;;;9.00;99.90;;;;;;5057717;28;20025;-76
2023/10/18 01:16:53;;;;;;;9.73;5.63;;;8.90;99.90;;;;;;5053292;28;20039;-75
2023/10/18 01:19:19;;;;;;;11.63;5.18;;;8.80;99.90;;;;;;5056370;28;20462;-76
2023/10/18 01:21:51;;;;;;;13.18;5.47;;;8.70;99.90;;;;;;5053614;28;20041;-76
2023/10/18 01:24:18;;;;;;;13.80;5.07;;;8.60;99.90;;;;;;5062782;28;20039;-76
2023/10/18 01:26:44;;;;;;;10.43;5.90;;;8.40;99.90;;;;;;5060840;28;20028;-76
2023/10/18 01:29:10;;;;;;;12.63;5.72;;;8.50;99.90;;;;;;5053408;28;20031;-76
2023/10/18 01:31:39;;;;;;;11.35;5.05;;;8.40;99.90;;;;;;5053559;28;20025;-76
2023/10/18 01:34:05;;;;;;;19.00;6.15;;;8.50;99.90;;;;;;5049610;28;20055;-76
2023/10/18 01:36:38;;;;;;;13.73;6.80;;;8.50;99.90;;;;;;5053876;28;20564;-76
2023/10/18 01:39:09;;;;;;;11.55;6.35;;;8.50;99.90;;;;;;5057162;28;20043;-76
2023/10/18 01:41:38;;;;;;;12.45;6.18;;;8.60;99.90;;;;;;5056351;28;20033;-76
2023/10/18 01:44:10;;;;;;;11.13;6.22;;;8.40;99.90;;;;;;5057921;28;20029;-76
2023/10/18 01:46:46;;;;;;;15.57;5.60;;;8.40;99.90;;;;;;5048486;28;20522;-76
2023/10/18 01:49:24;;;;;;;12.13;6.00;;;8.40;99.90;;;;;;5056117;28;20036;-76
2023/10/18 01:51:52;;;;;;;11.85;5.72;;;8.10;99.90;;;;;;5058022;28;20109;-76
2023/10/18 01:54:19;;;;;;;14.05;6.82;;;8.20;99.90;;;;;;5054516;28;20025;-76
2023/10/18 01:56:46;;;;;;;11.43;5.75;;;8.20;99.90;;;;;;5053027;28;20032;-76
2023/10/18 01:59:17;;;;;;;10.07;6.00;;;8.20;99.90;;;;;;5052285;28;20037;-76
2023/10/18 02:01:44;;;;;;;13.73;5.88;;;8.10;99.90;;;;;;5054768;28;20360;-76
2023/10/18 02:04:26;;;;;;;12.27;5.93;;;8.00;99.90;;;;;;5063422;28;20025;-76
2023/10/18 02:07:01;;;;;;;9.75;5.85;;;8.10;99.90;;;;;;5062907;28;20044;-76
2023/10/18 02:09:31;;;;;;;10.57;6.03;;;8.10;99.90;;;;;;5056514;28;20032;-76
2023/10/18 02:11:57;;;;;;;10.05;5.97;;;8.10;99.90;;;;;;5060623;28;20021;-76
2023/10/18 02:14:22;;;;;;;12.30;6.03;;;8.30;99.90;;;;;;5054606;28;20033;-76
2023/10/18 02:16:49;;;;;;;11.15;5.80;;;8.30;99.90;;;;;;5056272;28;20466;-76
2023/10/18 02:19:21;;;;;;;12.25;6.43;;;8.30;99.90;;;;;;5057750;28;20033;-76
2023/10/18 02:21:47;;;;;;;13.60;6.38;;;8.30;99.90;;;;;;5057213;28;20021;-76
2023/10/18 02:24:13;;;;;;;9.38;4.95;;;8.30;99.90;;;;;;5057760;28;20486;-76
2023/10/18 02:26:47;;;;;;;11.85;5.68;;;8.40;99.90;;;;;;5055584;28;20131;-76
2023/10/18 02:29:13;;;;;;;10.80;5.93;;;8.50;99.90;;;;;;5051428;28;20023;-76
2023/10/18 02:31:40;;;;;;;10.23;5.90;;;8.60;99.90;;;;;;5057158;28;20032;-76
2023/10/18 02:34:06;;;;;;;12.52;5.95;;;8.60;99.90;;;;;;5053426;28;20024;-77
2023/10/18 02:36:50;;;;;;;11.68;6.03;;;8.60;99.90;;;;;;5060925;28;20033;-77
2023/10/18 02:39:30;;;;;;;12.52;5.75;;;8.70;99.90;;;;;;5057255;28;20051;-76
2023/10/18 02:41:58;;;;;;;10.77;5.53;;;8.40;99.90;;;;;;5053491;28;20021;-74
2023/10/18 02:44:25;;;;;;;13.98;5.72;;;8.30;99.90;;;;;;5056914;28;20032;-76
2023/10/18 02:46:54;;;;;;;11.88;5.38;;;8.30;99.90;;;;;;5054442;28;20059;-75
2023/10/18 02:49:22;;;;;;;9.23;4.82;;;8.40;99.90;;;;;;5056856;28;20070;-75
2023/10/18 02:51:48;;;;;;;10.68;5.30;;;8.40;99.90;;;;;;5054037;28;20020;-75
2023/10/18 02:54:17;;;;;;;10.02;5.53;;;8.60;99.90;;;;;;5061182;28;20032;-75
2023/10/18 02:56:50;;;;;;;9.40;5.40;;;8.60;99.90;;;;;;5051185;28;20040;-75
2023/10/18 02:59:17;;;;;;;12.60;6.20;;;8.40;99.90;;;;;;5053388;28;20041;-75
2023/10/18 03:01:42;;;;;;;12.35;6.25;;;8.10;99.90;;;;;;5059539;28;22848;-75
2023/10/18 03:04:09;;;;;;;12.77;6.18;;;8.20;99.90;;;;;;5058673;28;20029;-76
2023/10/18 03:06:38;;;;;;;10.45;6.53;;;8.10;99.90;;;;;;5052002;28;20033;-76
2023/10/18 03:11:53;;;;;;;11.98;6.18;;;8.20;99.90;;;;;;5051972;28;20609;-75
2023/10/18 03:14:19;;;;;;;9.45;5.30;;;8.20;99.90;;;;;;5050228;28;20394;-75
2023/10/18 03:16:47;;;;;;;13.95;7.43;;;8.00;99.90;;;;;;5045884;28;20060;-76
2023/10/18 03:19:12;;;;;;;11.63;6.43;;;8.00;99.90;;;;;;5055174;28;20029;-76
2023/10/18 03:21:41;;;;;;;9.52;5.50;;;8.00;99.90;;;;;;5048781;28;20032;-76
2023/10/18 03:24:08;;;;;;;11.73;5.57;;;8.10;99.90;;;;;;5048825;28;20025;-76
2023/10/18 03:26:37;;;;;;;13.45;6.18;;;8.10;99.90;;;;;;5047884;28;20033;-75
2023/10/18 03:29:05;;;;;;;9.32;5.97;;;8.10;99.90;;;;;;5056937;28;20044;-75
2023/10/18 03:31:35;;;;;;;12.98;5.70;;;8.00;99.90;;;;;;5061630;28;20504;-75
2023/10/18 03:34:02;;;;;;;12.40;7.05;;;8.10;99.90;;;;;;5047607;28;20458;-76
2023/10/18 03:36:32;;;;;;;12.43;6.30;;;8.20;99.90;;;;;;5054305;28;20025;-76
2023/10/18 03:39:03;;;;;;;11.75;6.25;;;8.20;99.90;;;;;;5050557;28;20041;-76
2023/10/18 03:41:40;;;;;;;10.82;5.68;;;8.20;99.90;;;;;;5046933;28;20025;-76
2023/10/18 03:44:09;;;;;;;13.55;6.18;;;8.00;99.90;;;;;;5045234;28;20026;-76
2023/10/18 03:46:38;;;;;;;9.70;6.15;;;8.00;99.90;;;;;;5048568;28;20024;-76
2023/10/18 03:49:09;;;;;;;10.73;5.28;;;8.10;99.90;;;;;;5055486;28;20532;-76
2023/10/18 03:51:37;;;;;;;8.30;4.32;;;8.00;99.90;;;;;;5052485;28;20032;-76
2023/10/18 03:54:03;;;;;;;9.80;4.32;;;8.00;99.90;;;;;;5047994;28;20021;-76
2023/10/18 03:56:32;;;;;;;10.27;5.18;;;8.00;99.90;;;;;;5055204;28;20048;-76
2023/10/18 03:59:01;;;;;;;9.25;5.57;;;8.00;99.90;;;;;;5057080;28;20064;-75
2023/10/18 04:01:28;;;;;;;13.65;6.18;;;7.90;99.90;;;;;;5045359;28;20047;-75
2023/10/18 04:03:56;;;;;;;11.73;5.90;;;8.00;99.90;;;;;;5051145;28;20082;-75
2023/10/18 04:06:27;;;;;;;14.48;6.15;;;7.90;99.90;;;;;;5056750;28;20048;-75
2023/10/18 04:08:58;;;;;;;12.88;7.28;;;7.80;99.90;;;;;;5044748;28;20128;-76
2023/10/18 04:11:28;;;;;;;11.98;5.78;;;7.90;99.90;;;;;;5051867;28;20028;-76
2023/10/18 04:13:53;;;;;;;10.50;6.70;;;8.00;99.90;;;;;;5046272;28;20031;-76
2023/10/18 04:16:26;;;;;;;12.88;6.18;;;8.00;99.90;;;;;;5053275;28;20028;-76
2023/10/18 04:18:52;;;;;;;12.48;6.28;;;8.00;99.90;;;;;;5049203;28;20044;-76
2023/10/18 04:21:25;;;;;;;8.65;4.78;;;8.00;99.90;;;;;;5048452;28;20040;-77
2023/10/18 04:23:54;;;;;;;8.65;4.75;;;7.90;99.90;;;;;;5047058;28;20025;-76
2023/10/18 04:26:19;;;;;;;9.80;4.85;;;7.90;99.90;;;;;;5048605;28;20028;-76
2023/10/18 04:28:45;;;;;;;16.35;8.20;;;7.90;99.90;;;;;;5055194;28;20375;-76
2023/10/18 04:31:14;;;;;;;10.57;5.75;;;7.90;99.90;;;;;;5043982;28;20486;-76
2023/10/18 04:33:54;;;;;;;10.48;5.38;;;7.90;99.90;;;;;;5051147;28;20033;-76
2023/10/18 04:36:23;;;;;;;10.43;4.80;;;7.80;99.90;;;;;;5044464;28;20094;-76
2023/10/18 04:38:51;;;;;;;8.85;5.57;;;7.70;99.90;;;;;;5050145;28;20113;-76
2023/10/18 04:41:24;;;;;;;10.65;5.80;;;7.60;99.90;;;;;;5050015;28;20033;-76
2023/10/18 04:44:06;;;;;;;9.75;5.53;;;7.60;99.90;;;;;;5042421;28;20516;-77
2023/10/18 04:46:35;;;;;;;8.52;4.88;;;7.60;99.90;;;;;;5043382;28;20020;-76
2023/10/18 04:49:16;;;;;;;10.55;5.80;;;7.70;99.90;;;;;;5047877;28;20059;-76
2023/10/18 04:54:15;;;;;;;9.48;5.60;;;7.70;99.90;;;;;;5052937;28;20032;-77
2023/10/18 04:56:45;;;;;;;11.02;5.35;;;7.60;99.90;;;;;;5042979;28;20220;-75
2023/10/18 05:04:29;;;;;;;11.27;5.95;;;7.80;99.90;;;;;;5045405;28;20033;-75
2023/10/18 05:06:56;;;;;;;9.40;5.47;;;7.80;99.90;;;;;;5046293;28;20560;-76
2023/10/18 05:09:34;;;;;;;9.35;4.32;;;7.90;99.90;;;;;;5050844;28;20608;-77
2023/10/18 05:12:07;;;;;;;9.32;4.80;;;7.90;99.90;;;;;;5045466;28;20056;-75
2023/10/18 05:14:43;;;;;;;14.57;5.60;;;7.80;99.90;;;;;;5046667;28;20029;-75
2023/10/18 05:17:21;;;;;;;9.52;5.00;;;7.70;99.90;;;;;;5049167;28;20040;-74
2023/10/18 05:19:48;;;;;;;12.13;6.13;;;7.60;99.90;;;;;;5053553;28;20033;-77
2023/10/18 05:24:55;;;;;;;10.15;5.20;;;7.70;99.90;;;;;;5052537;28;20045;-77
2023/10/18 05:27:24;;;;;;;8.90;4.68;;;7.80;99.90;;;;;;5049250;28;20028;-80
2023/10/18 05:29:54;;;;;;;10.88;5.40;;;7.90;99.90;;;;;;5049171;28;20382;-77
2023/10/18 05:33:15;;;;;;;8.98;5.15;;;7.80;99.90;;;;;;5044839;28;20420;-79
2023/10/18 05:37:57;;;;;;;12.50;5.97;;;7.80;99.90;;;;;;5054109;28;20595;-78
2023/10/18 05:43:43;;;;;;;11.65;6.03;;;7.80;99.90;;;;;;5051540;28;20339;-79
2023/10/18 05:46:07;;;;;;;9.85;4.45;;;7.80;99.90;;;;;;5042642;28;20103;-79
2023/10/18 05:48:40;;;;;;;10.80;5.30;;;7.90;99.90;;;;;;5047328;28;20025;-79
2023/10/18 05:51:26;;;;;;;8.15;5.05;;;7.90;99.90;;;;;;5050593;28;20037;-79
2023/10/18 05:53:59;;;;;;;8.80;4.28;;;8.10;99.90;;;;;;5054900;28;20094;-78
2023/10/18 05:56:34;;;;;;;10.05;5.07;;;8.10;99.90;;;;;;5046056;28;20588;-77
2023/10/18 06:01:53;;;;;;;13.75;5.70;;;8.10;99.90;;;;;;5048615;28;20033;-79
2023/10/18 06:04:25;;;;;;;8.60;4.65;;;8.10;99.90;;;;;;5042882;28;20136;-79
2023/10/18 06:06:58;;;;;;;7.03;4.45;;;8.10;99.90;;;;;;5053132;28;20029;-79
2023/10/18 06:09:54;;;;;;;8.60;5.53;;;8.20;99.90;;;;;;5046028;28;20036;-78
2023/10/18 06:12:22;;;;;;;7.43;3.90;;;8.30;99.90;;;;;;5049706;28;20375;-79
2023/10/18 06:14:51;;;;;;;8.25;4.40;;;8.30;99.90;;;;;;5053174;28;20698;-80
2023/10/18 06:17:46;;;;;;;8.00;4.50;;;8.50;99.90;;;;;;5040149;28;20025;-79
2023/10/18 06:20:28;;;;;;;9.18;4.35;;;8.60;99.90;;;;;;5042959;28;20056;-80
2023/10/18 06:23:09;;;;;;;10.23;4.45;;;8.70;99.90;;;;;;5050358;28;20029;-79
2023/10/18 06:25:38;;;;;;;8.80;4.38;;;8.70;99.90;;;;;;5048902;28;20036;-79
2023/10/18 06:28:07;;;;;;;7.68;3.83;;;8.80;99.90;;;;;;5046837;28;20482;-80
2023/10/18 06:30:39;;;;;;;6.68;3.58;;;8.80;99.90;;;;;;5049034;28;20111;-80
2023/10/18 06:33:07;;;;;;;7.00;3.53;;;8.80;99.90;;;;;;5049049;28;20626;-78
2023/10/18 06:35:51;;;;;;;13.52;4.15;;;8.90;99.90;;;;;;5049264;28;20017;-79
2023/10/18 06:38:23;;;;;;;7.68;4.05;;;8.90;99.90;;;;;;5047986;28;20032;-79
2023/10/18 06:41:01;;;;;;;9.23;3.90;;;9.00;99.90;;;;;;5052411;28;20032;-79
2023/10/18 06:43:27;;;;;;;11.40;4.20;;;9.00;99.90;;;;;;5044394;28;20032;-79
2023/10/18 06:45:54;;;;;;;11.80;4.35;;;9.00;99.90;;;;;;5047524;28;20062;-80
2023/10/18 06:48:28;;;;;;;8.45;3.97;;;9.00;99.90;;;;;;5051521;28;20024;-79
2023/10/18 06:50:53;;;;;;;15.10;4.25;;;8.90;99.90;;;;;;5044910;28;20033;-80
2023/10/18 06:53:20;;;;;;;8.27;3.83;;;9.00;99.90;;;;;;5051228;28;20998;-80
2023/10/18 07:00:51;;;;;;;7.20;3.42;;;9.10;99.90;;;;;;5048367;28;20128;-80
2023/10/18 07:03:18;;;;;;;7.20;4.03;;;9.10;99.90;;;;;;5048920;28;20399;-80
2023/10/18 07:05:50;;;;;;;9.65;4.72;;;9.20;99.90;;;;;;5056583;28;20048;-78
2023/10/18 07:08:19;;;;;;;11.77;3.85;;;9.20;99.90;;;;;;5048297;28;20111;-79
2023/10/18 07:10:54;;;;;;;10.73;4.85;;;9.20;99.90;;;;;;5051318;28;20048;-78
2023/10/18 07:13:42;;;;;;;8.57;3.50;;;9.10;99.90;;;;;;5059841;28;20032;-78
2023/10/18 07:21:38;;;;;;;6.95;3.33;;;9.20;99.90;;;;;;5053649;28;20427;-78
2023/10/18 07:24:09;;;;;;;6.80;3.47;;;9.20;99.90;;;;;;5048958;28;20032;-78
2023/10/18 07:26:35;;;;;;;9.52;3.67;;;9.20;99.90;;;;;;5051664;28;20025;-79
2023/10/18 07:29:06;;;;;;;7.30;4.00;;;9.20;99.90;;;;;;5055671;28;20483;-79
2023/10/18 07:31:38;;;;;;;7.68;4.28;;;9.20;99.90;;;;;;5052374;28;20570;-78
2023/10/18 07:34:07;;;;;;;8.63;4.47;;;9.20;99.90;;;;;;5053966;28;20037;-77
2023/10/18 07:36:37;;;;;;;6.47;3.53;;;9.30;99.90;;;;;;5050770;28;20090;-79
2023/10/18 07:39:04;;;;;;;6.30;3.42;;;9.10;99.90;;;;;;5044361;28;20027;-77
2023/10/18 07:41:34;;;;;;;8.65;4.05;;;9.20;99.90;;;;;;5046502;28;20028;-80
2023/10/18 07:44:00;;;;;;;9.00;3.88;;;9.30;99.90;;;;;;5053621;28;20276;-78
2023/10/18 07:46:27;;;;;;;6.68;3.72;;;9.50;99.90;;;;;;5056327;28;20035;-77
2023/10/18 07:48:54;;;;;;;12.90;4.40;;;9.60;99.90;;;;;;5046918;28;20033;-77
2023/10/18 07:51:23;;;;;;;10.25;4.18;;;9.60;99.90;;;;;;5046118;28;20087;-78
2023/10/18 07:53:53;;;;;;;8.02;3.42;;;9.50;99.90;;;;;;5058902;28;20032;-77
2023/10/18 07:56:26;;;;;;;7.65;4.15;;;9.50;99.90;;;;;;5052353;28;20492;-78
2023/10/18 07:59:26;;;;;;;7.25;3.53;;;9.60;99.90;;;;;;5053290;28;20060;-77
2023/10/18 08:01:51;;;;;;;7.50;3.83;;;9.60;99.90;;;;;;5051939;28;20049;-78
2023/10/18 08:04:20;;;;;;;10.38;3.50;;;9.70;99.90;;;;;;5044714;28;20670;-78
2023/10/18 08:06:48;;;;;;;8.00;4.00;;;9.70;99.90;;;;;;5047713;28;20024;-78
2023/10/18 08:09:19;;;;;;;10.95;4.40;;;9.50;99.90;;;;;;5053082;28;20029;-79
2023/10/18 08:11:45;;;;;;;7.35;3.60;;;9.60;99.90;;;;;;5061360;28;20100;-77
2023/10/18 08:14:16;;;;;;;7.63;4.03;;;9.70;99.90;;;;;;5054215;28;20036;-80
2023/10/18 08:16:43;;;;;;;9.18;4.15;;;9.60;99.90;;;;;;5049643;28;20044;-78
2023/10/18 08:19:12;;;;;;;9.95;3.80;;;9.60;99.90;;;;;;5057879;28;20041;-78
2023/10/18 08:21:38;;;;;;;7.20;3.22;;;9.70;99.90;;;;;;5054439;28;20024;-78
2023/10/18 08:24:08;;;;;;;7.85;4.03;;;9.70;99.90;;;;;;5047743;28;20029;-78
2023/10/18 08:26:47;;;;;;;11.15;4.25;;;9.80;99.90;;;;;;5052405;28;20032;-79
2023/10/18 08:29:14;;;;;;;9.43;3.90;;;9.90;99.90;;;;;;5052995;28;20028;-78
2023/10/18 08:31:43;;;;;;;8.02;4.10;;;10.10;99.90;;;;;;5050193;28;20131;-78
2023/10/18 08:34:15;;;;;;;7.22;2.92;;;10.10;99.90;;;;;;5044862;28;20024;-78
2023/10/18 08:36:44;;;;;;;10.18;3.58;;;10.10;99.90;;;;;;5053624;28;20032;-78
2023/10/18 08:39:10;;;;;;;9.43;4.00;;;10.10;99.90;;;;;;5052436;28;20068;-78
2023/10/18 08:41:55;;;;;;;8.15;3.38;;;10.10;99.90;;;;;;5059794;28;20029;-79
2023/10/18 08:44:24;;;;;;;7.25;3.83;;;10.20;99.90;;;;;;5051490;28;20057;-79
2023/10/18 08:49:44;;;;;;;10.30;3.67;;;10.40;99.90;;;;;;5043114;28;20463;-79
2023/10/18 08:52:10;;;;;;;6.97;3.38;;;10.30;99.90;;;;;;5047666;28;20021;-78
2023/10/18 08:54:41;;;;;;;10.43;3.75;;;10.40;99.90;;;;;;5052293;28;20055;-78
2023/10/18 08:57:09;;;;;;;7.20;3.92;;;10.40;99.90;;;;;;5052339;28;20423;-78
2023/10/18 08:59:57;;;;;;;11.80;3.58;;;10.50;99.90;;;;;;5053302;28;20068;-78
2023/10/18 09:02:22;;;;;;;12.10;3.30;;;10.50;99.90;;;;;;5044967;28;20048;-78
2023/10/18 09:04:54;;;;;;;7.38;3.63;;;10.70;99.90;;;;;;5051510;28;20072;-78
2023/10/18 09:07:42;;;;;;;6.15;3.28;;;10.90;99.90;;;;;;5057574;28;20017;-79
2023/10/18 09:18:23;;;;;;;7.85;3.90;;;11.30;99.90;;;;;;5053374;28;20043;-78
2023/10/18 09:20:49;;;;;;;5.90;3.10;;;11.50;99.90;;;;;;5052400;28;20021;-78
2023/10/18 09:23:22;;;;;;;6.78;3.38;;;11.70;99.90;;;;;;5050047;28;20032;-78
2023/10/18 09:25:51;;;;;;;5.18;3.03;;;11.80;99.90;;;;;;5051015;28;20078;-78
2023/10/18 09:28:32;;;;;;;6.00;3.08;;;11.80;99.90;;;;;;5046884;28;20036;-78
2023/10/18 09:31:10;;;;;;;6.07;2.95;;;11.70;99.90;;;;;;5043650;28;20039;-78
2023/10/18 09:33:48;;;;;;;6.05;3.08;;;11.20;99.90;;;;;;5056931;28;20597;-79
2023/10/18 09:36:19;;;;;;;5.38;2.72;;;11.40;99.90;;;;;;5050865;28;20051;-78
2023/10/18 09:38:48;;;;;;;7.30;3.25;;;11.50;99.90;;;;;;5043453;28;20515;-78
2023/10/18 09:41:14;;;;;;;7.55;3.85;;;11.50;99.90;;;;;;5050043;28;20029;-77
2023/10/18 09:43:39;;;;;;;9.10;3.10;;;11.70;99.90;;;;;;5044590;28;20376;-79
2023/10/18 09:46:07;;;;;;;5.22;2.83;;;11.80;99.90;;;;;;5047700;28;20021;-78
2023/10/18 09:48:38;;;;;;;9.23;3.08;;;12.00;99.90;;;;;;5043852;28;20025;-78
2023/10/18 09:51:08;;;;;;;5.40;3.60;;;12.00;99.90;;;;;;5054058;28;20526;-78
2023/10/18 09:54:07;;;;;;;7.32;3.22;;;12.10;99.90;;;;;;5046811;28;20838;-79
2023/10/18 09:56:34;;;;;;;7.13;3.15;;;12.00;99.90;;;;;;5051770;28;20045;-78
2023/10/18 09:59:05;;;;;;;7.15;3.28;;;11.90;99.90;;;;;;5051649;28;20112;-78
2023/10/18 10:04:18;;;;;;;8.02;3.03;;;11.80;99.90;;;;;;5062463;28;20062;-78
2023/10/18 10:06:47;;;;;;;7.47;3.20;;;11.80;99.90;;;;;;5063246;28;20490;-78
2023/10/18 10:09:14;;;;;;;7.93;2.97;;;11.90;99.90;;;;;;5064239;28;20486;-78
2023/10/18 10:11:45;;;;;;;5.75;2.97;;;11.90;99.90;;;;;;5064139;28;20031;-79
2023/10/18 10:14:16;;;;;;;20.83;3.60;;;11.90;99.90;;;;;;5066349;28;20036;-79
2023/10/18 10:17:10;;;;;;;9.23;3.20;;;12.00;99.90;;;;;;5068283;28;20033;-79
2023/10/18 10:19:41;;;;;;;8.37;3.57;;;11.90;99.90;;;;;;5068030;28;20048;-78
2023/10/18 10:22:11;;;;;;;6.60;3.58;;;12.00;99.90;;;;;;5067953;28;20025;-79
2023/10/18 10:24:50;;;;;;;8.30;3.83;;;12.00;99.90;;;;;;5068239;28;20390;-79
2023/10/18 10:27:27;;;;;;;6.22;3.47;;;12.10;99.90;;;;;;5068016;28;20044;-79
2023/10/18 10:29:57;;;;;;;8.63;3.88;;;12.00;99.90;;;;;;5068046;28;20038;-78
2023/10/18 10:32:30;;;;;;;8.77;4.47;;;12.10;99.90;;;;;;5068989;28;20118;-78
2023/10/18 10:35:17;;;;;;;7.00;3.63;;;12.40;99.90;;;;;;5069311;28;20029;-78
2023/10/18 10:37:52;;;;;;;8.38;4.05;;;12.30;99.90;;;;;;5070512;28;20032;-79
2023/10/18 10:43:01;;;;;;;5.90;3.70;;;12.30;99.90;;;;;;5071021;28;20037;-77
2023/10/18 10:48:16;;;;;;;10.40;3.65;;;12.60;99.90;;;;;;5070406;28;20513;-79
2023/10/18 10:50:53;;;;;;;10.07;4.00;;;12.50;99.90;;;;;;5070546;28;20031;-78
2023/10/18 10:53:44;;;;;;;7.53;3.55;;;12.60;99.90;;;;;;5069295;28;20474;-77
2023/10/18 10:56:20;;;;;;;8.95;3.97;;;12.30;99.90;;;;;;5058624;28;20486;-78
2023/10/18 10:58:55;;;;;;;8.18;4.25;;;12.30;99.90;;;;;;5050347;28;20025;-78
2023/10/18 11:01:39;;;;;;;9.07;3.65;;;12.20;99.90;;;;;;5053211;28;20104;-78
2023/10/18 11:04:49;;;;;;;10.32;4.50;;;12.10;99.90;;;;;;5049882;28;20025;-78
2023/10/18 11:07:23;;;;;;;12.77;4.45;;;12.30;99.90;;;;;;5058926;28;20036;-78
2023/10/18 11:09:59;;;;;;;7.13;3.88;;;12.40;99.90;;;;;;5046002;28;20060;-78
2023/10/18 11:12:27;;;;;;;10.93;3.63;;;12.40;99.90;;;;;;5045284;28;20025;-78
2023/10/18 11:14:53;;;;;;;6.53;3.83;;;12.50;99.90;;;;;;5051750;28;20104;-78
2023/10/18 11:17:23;;;;;;;7.10;3.75;;;12.50;99.90;;;;;;5062509;28;20508;-77
2023/10/18 11:19:53;;;;;;;11.45;4.65;;;12.40;99.90;;;;;;5056582;28;20574;-77
2023/10/18 11:22:23;;;;;;;7.97;4.20;;;12.50;99.90;;;;;;5058887;28;20426;-78
2023/10/18 11:24:50;;;;;;;7.15;3.47;;;12.40;99.90;;;;;;5049783;28;20580;-76
2023/10/18 11:27:33;;;;;;;7.57;3.80;;;12.40;99.90;;;;;;5057134;28;20467;-76
2023/10/18 11:32:48;;;;;;;9.90;4.20;;;12.30;99.90;;;;;;5055709;28;20044;-76
2023/10/18 11:35:25;;;;;;;8.60;3.72;;;12.30;99.90;;;;;;5049875;28;20033;-78
2023/10/18 11:37:51;;;;;;;9.85;3.80;;;12.30;99.90;;;;;;5060044;28;20037;-77
2023/10/18 11:41:04;;;;;;;10.48;4.40;;;12.30;99.90;;;;;;5053693;28;20653;-77
2023/10/18 11:43:08;;;;;;;10.02;4.40;;;12.20;99.90;;;;;;5046112;28;20033;-77
2023/10/18 11:45:38;;;;;;;8.93;4.75;;;12.10;99.90;;;;;;5047063;28;20111;-76
2023/10/18 11:48:06;;;;;;;13.75;4.13;;;12.20;99.90;;;;;;5043546;28;20092;-77
2023/10/18 11:50:47;;;;;;;11.68;4.43;;;12.30;99.90;;;;;;5050038;28;20394;-77
2023/10/18 11:53:15;;;;;;;6.18;3.42;;;12.30;99.90;;;;;;5053632;28;20278;-77
2023/10/18 11:55:59;;;;;;;11.77;4.03;;;12.40;99.90;;;;;;5049584;28;20036;-77
2023/10/18 11:58:26;;;;;;;;;;;12.50;99.90;;;;;;5051156;28;20040;-77
2023/10/18 12:00:58;;;;;;;8.52;4.43;;;12.50;99.90;;;;;;5049295;28;20003;-77
2023/10/18 12:03:27;;;;;;;8.60;4.07;;;12.50;99.90;;;;;;5046914;28;20143;-78
2023/10/18 12:05:55;;;;;;;7.05;3.95;;;12.40;99.90;;;;;;5054529;28;20041;-77
2023/10/18 12:08:23;;;;;;;7.80;3.50;;;12.30;99.90;;;;;;5050769;28;20090;-78
2023/10/18 12:10:49;;;;;;;10.00;4.82;;;12.30;99.90;;;;;;5053120;28;20033;-78
2023/10/18 12:13:20;;;;;;;7.95;3.95;;;12.40;99.90;;;;;;5048244;28;20098;-80
2023/10/18 12:15:46;;;;;;;9.73;4.22;;;12.50;99.90;;;;;;5052180;28;20502;-78
2023/10/18 12:18:14;;;;;;;8.85;4.38;;;12.50;99.90;;;;;;5056095;28;20043;-77
2023/10/18 12:20:43;;;;;;;11.77;4.32;;;12.50;99.90;;;;;;5054037;28;20059;-77
2023/10/18 12:23:10;;;;;;;8.57;3.50;;;12.50;99.90;;;;;;5046869;28;20058;-77
2023/10/18 12:25:42;;;;;;;10.57;3.95;;;12.60;99.90;;;;;;5050361;28;20052;-78
2023/10/18 12:28:12;;;;;;;9.00;3.78;;;12.60;99.90;;;;;;5050809;28;20029;-78
2023/10/18 12:30:43;;;;;;;9.15;3.70;;;12.50;99.90;;;;;;5057183;28;20632;-78
2023/10/18 12:33:19;;;;;;;8.13;3.78;;;12.30;99.90;;;;;;5049350;28;20051;-78
2023/10/18 12:35:48;;;;;;;15.45;3.97;;;12.30;99.90;;;;;;5048364;28;20131;-78
2023/10/18 12:38:14;;;;;;;9.98;3.42;;;12.30;99.90;;;;;;5048893;28;20084;-78
2023/10/18 12:40:55;;;;;;;8.45;3.72;;;12.40;99.90;;;;;;5049461;28;20093;-78
2023/10/18 12:43:21;;;;;;;8.45;3.13;;;12.40;99.90;;;;;;5050135;28;20032;-78
2023/10/18 12:45:50;;;;;;;6.38;3.83;;;12.40;99.90;;;;;;5050365;28;20074;-78
2023/10/18 12:48:23;;;;;;;7.75;3.83;;;12.40;99.90;;;;;;5051982;28;20029;-77
2023/10/18 12:50:51;;;;;;;7.75;3.92;;;12.20;99.90;;;;;;5046348;28;20483;-78
2023/10/18 12:55:57;;;;;;;10.95;3.67;;;12.00;99.90;;;;;;5046417;28;20058;-77
2023/10/18 12:58:29;;;;;;;10.65;3.83;;;12.00;99.90;;;;;;5045682;28;20732;-78
2023/10/18 13:01:05;;;;;;;10.13;3.95;;;11.90;99.90;;;;;;5045765;28;20024;-79
2023/10/18 13:03:37;;;;;;;10.70;4.28;;;11.80;99.90;;;;;;5048004;28;20025;-78
2023/10/18 13:06:07;;;;;;;8.23;3.72;;;11.70;99.90;;;;;;5042482;28;20051;-77
2023/10/18 13:08:37;;;;;;;7.97;3.38;;;11.60;99.90;;;;;;5040521;28;20120;-77
2023/10/18 13:13:30;;;;;;;7.20;3.47;;;11.70;99.90;;;;;;5050924;28;20044;-77
2023/10/18 13:15:57;;;;;;;9.75;4.55;;;11.60;99.90;;;;;;5045040;28;20021;-76
2023/10/18 13:18:26;;;;;;;9.45;3.90;;;11.70;99.90;;;;;;5044740;28;20029;-76
2023/10/18 13:20:55;;;;;;;10.48;4.13;;;11.60;99.90;;;;;;5051108;28;20067;-75
2023/10/18 13:23:27;;;;;;;8.50;3.40;;;11.60;99.90;;;;;;5050630;28;20032;-75
2023/10/18 13:25:54;;;;;;;7.95;4.30;;;11.70;99.90;;;;;;5055407;28;20631;-75
2023/10/18 13:28:24;;;;;;;7.88;4.25;;;11.60;99.90;;;;;;5048327;28;20120;-74
2023/10/18 13:30:51;;;;;;;6.82;4.05;;;11.50;99.90;;;;;;5049412;28;20078;-75
2023/10/18 13:33:18;;;;;;;9.98;4.53;;;11.50;99.90;;;;;;5055444;28;20031;-74
2023/10/18 13:35:45;;;;;;;8.95;4.20;;;11.30;99.90;;;;;;5052004;28;20043;-74
2023/10/18 13:38:11;;;;;;;6.38;3.92;;;11.30;99.90;;;;;;5051957;28;20037;-74
2023/10/18 13:40:39;;;;;;;8.85;4.10;;;11.30;99.90;;;;;;5055795;28;20108;-75
2023/10/18 13:43:09;;;;;;;10.27;4.18;;;11.20;99.90;;;;;;5048697;28;20021;-75
2023/10/18 13:45:34;;;;;;;8.52;4.63;;;11.20;99.90;;;;;;5042145;28;20083;-74
2023/10/18 13:48:02;;;;;;;8.57;4.45;;;11.30;99.90;;;;;;5046104;28;20028;-74
2023/10/18 13:50:31;;;;;;;11.90;4.70;;;11.30;99.90;;;;;;5054591;28;20033;-74
2023/10/18 13:52:57;;;;;;;10.48;4.55;;;11.30;99.90;;;;;;5055258;28;20033;-74
2023/10/18 13:55:22;;;;;;;10.32;5.10;;;11.30;99.90;;;;;;5055245;28;20032;-74
2023/10/18 13:57:49;;;;;;;11.70;5.00;;;11.40;99.90;;;;;;5057326;28;20044;-74
2023/10/18 14:00:18;;;;;;;8.45;4.60;;;11.30;99.90;;;;;;5050199;28;20032;-75
2023/10/18 14:02:45;;;;;;;9.75;4.60;;;11.40;99.90;;;;;;5048834;28;20033;-75
2023/10/18 14:05:11;;;;;;;10.48;5.20;;;11.40;99.90;;;;;;5053446;28;20067;-74
2023/10/18 14:07:37;;;;;;;9.70;5.15;;;11.30;99.90;;;;;;5054527;28;20428;-75